createdAt,value
2018-10-18T00:01:18.145Z,99.90
2018-10-18T00:03:45.699Z,99.90
2018-10-18T00:06:13.260Z,99.90
2018-10-18T00:08:40.805Z,99.90
2018-10-18T00:11:08.377Z,99.90
2018-10-18T00:13:35.917Z,99.90
2018-10-18T00:16:03.579Z,99.90
2018-10-18T00:18:31.113Z,99.90
2018-10-18T00:20:58.761Z,99.90
2018-10-18T00:23:26.325Z,99.90
2018-10-18T00:25:53.916Z,99.90
2018-10-18T00:28:21.713Z,99.90
2018-10-18T00:30:49.299Z,99.90
2018-10-18T00:33:17.181Z,99.90
2018-10-18T00:35:44.733Z,99.90
2018-10-18T00:38:12.402Z,99.90
2018-10-18T00:40:39.848Z,99.90
2018-10-18T00:43:07.433Z,99.90
2018-10-18T00:45:35.014Z,99.90
2018-10-18T00:48:02.679Z,99.90
2018-10-18T00:50:30.367Z,99.90
2018-10-18T00:52:57.925Z,99.90
2018-10-18T00:55:25.461Z,99.90
2018-10-18T00:57:53.213Z,99.90
2018-10-18T01:00:20.766Z,99.90
2018-10-18T01:02:48.308Z,99.90
2018-10-18T01:05:15.865Z,99.90
2018-10-18T01:07:43.424Z,99.90
2018-10-18T01:10:10.962Z,99.90
2018-10-18T01:12:38.554Z,99.90
2018-10-18T01:15:06.489Z,99.90
2018-10-18T01:17:34.046Z,99.90
2018-10-18T01:20:01.661Z,99.90
2018-10-18T01:22:29.304Z,99.90
2018-10-18T01:24:56.841Z,99.90
2018-10-18T01:27:24.408Z,99.90
2018-10-18T01:29:52.056Z,99.90
2018-10-18T01:32:19.605Z,99.90
2018-10-18T01:34:47.133Z,99.90
2018-10-18T01:37:14.689Z,99.90
2018-10-18T01:39:42.214Z,99.90
2018-10-18T01:42:09.836Z,99.90
2018-10-18T01:44:37.397Z,99.90
2018-10-18T01:47:05.094Z,99.90
2018-10-18T01:49:32.965Z,99.90
2018-10-18T01:52:00.505Z,99.90
2018-10-18T01:54:28.329Z,99.90
2018-10-18T01:56:55.896Z,99.90
2018-10-18T01:59:23.445Z,99.90
2018-10-18T02:01:50.994Z,99.90
2018-10-18T02:04:18.521Z,99.90
2018-10-18T02:06:46.081Z,99.90
2018-10-18T02:09:13.634Z,99.90
2018-10-18T02:11:41.725Z,99.90
2018-10-18T02:14:09.409Z,99.90
2018-10-18T02:16:37.017Z,99.90
2018-10-18T02:19:04.978Z,99.90
2018-10-18T02:21:32.601Z,99.90
2018-10-18T02:24:00.201Z,99.90
2018-10-18T02:26:27.753Z,99.90
2018-10-18T02:28:55.301Z,99.90
2018-10-18T02:31:22.836Z,99.90
2018-10-18T02:33:50.373Z,99.90
2018-10-18T02:36:20.873Z,99.90
2018-10-18T02:38:48.401Z,99.90
2018-10-18T02:41:15.945Z,99.90
2018-10-18T02:43:43.523Z,99.90
2018-10-18T02:46:11.093Z,99.90
2018-10-18T02:48:38.714Z,99.90
2018-10-18T02:51:06.262Z,99.90
2018-10-18T02:53:34.076Z,99.90
2018-10-18T02:56:01.616Z,99.90
2018-10-18T02:58:29.182Z,99.90
2018-10-18T03:00:56.733Z,99.90
2018-10-18T03:03:24.309Z,99.90
2018-10-18T03:05:52.443Z,99.90
2018-10-18T03:08:19.988Z,99.90
2018-10-18T03:10:47.545Z,99.90
2018-10-18T03:13:15.081Z,99.90
2018-10-18T03:15:42.626Z,99.90
2018-10-18T03:18:10.276Z,99.90
2018-10-18T03:20:37.782Z,99.90
2018-10-18T03:23:05.654Z,99.90
2018-10-18T03:25:46.125Z,99.90
2018-10-18T03:28:13.709Z,99.90
2018-10-18T03:30:41.253Z,99.90
2018-10-18T03:33:09.741Z,99.90
2018-10-18T03:35:37.369Z,99.90
2018-10-18T03:38:04.933Z,99.90
2018-10-18T03:40:32.473Z,99.90
2018-10-18T03:43:00.047Z,99.90
2018-10-18T03:45:27.853Z,99.90
2018-10-18T03:47:55.436Z,99.90
2018-10-18T03:50:23.031Z,99.90
2018-10-18T03:52:50.684Z,99.90
2018-10-18T03:55:18.225Z,99.90
2018-10-18T03:57:45.762Z,99.90
2018-10-18T04:00:13.374Z,99.90
2018-10-18T04:02:40.905Z,99.90
2018-10-18T04:05:09.369Z,99.90
2018-10-18T04:07:37.520Z,99.90
2018-10-18T04:10:05.714Z,99.90
2018-10-18T04:12:33.271Z,99.90
2018-10-18T04:15:00.862Z,99.90
2018-10-18T04:17:28.406Z,99.90
2018-10-18T04:19:55.986Z,99.90
2018-10-18T04:22:23.574Z,99.90
2018-10-18T04:24:51.169Z,99.90
2018-10-18T04:27:18.743Z,99.90
2018-10-18T04:29:46.288Z,99.90
2018-10-18T04:32:13.857Z,99.90
2018-10-18T04:34:41.409Z,99.90
2018-10-18T04:37:08.970Z,99.90
2018-10-18T04:39:36.590Z,99.90
2018-10-18T04:42:04.210Z,99.90
2018-10-18T04:44:31.902Z,99.90
2018-10-18T04:46:59.485Z,99.90
2018-10-18T04:49:27.032Z,99.90
2018-10-18T04:51:54.584Z,99.90
2018-10-18T04:54:22.159Z,99.90
2018-10-18T04:56:49.744Z,99.90
2018-10-18T04:59:17.286Z,99.90
2018-10-18T05:01:44.846Z,99.90
2018-10-18T05:04:12.431Z,99.90
2018-10-18T05:06:39.941Z,99.90
2018-10-18T05:09:08.303Z,99.90
2018-10-18T05:11:35.897Z,99.90
2018-10-18T05:14:03.748Z,99.90
2018-10-18T05:16:31.308Z,99.90
2018-10-18T05:18:58.929Z,99.90
2018-10-18T05:21:26.534Z,99.90
2018-10-18T05:23:54.125Z,99.90
2018-10-18T05:26:21.662Z,99.90
2018-10-18T05:28:49.220Z,99.90
2018-10-18T05:31:16.881Z,99.90
2018-10-18T05:33:44.402Z,99.90
2018-10-18T05:36:11.978Z,99.90
2018-10-18T05:38:39.666Z,99.90
2018-10-18T05:41:07.941Z,99.90
2018-10-18T05:43:37.642Z,99.90
2018-10-18T05:46:07.889Z,99.90
2018-10-18T05:48:35.579Z,99.90
2018-10-18T05:51:03.168Z,99.90
2018-10-18T05:53:30.742Z,99.90
2018-10-18T05:55:58.557Z,99.90
2018-10-18T05:58:26.229Z,99.90
2018-10-18T06:00:53.859Z,99.90
2018-10-18T06:03:21.393Z,99.90
2018-10-18T06:05:49.148Z,99.90
2018-10-18T06:08:17.789Z,99.90
2018-10-18T06:10:57.013Z,99.90
2018-10-18T06:13:24.562Z,99.90
2018-10-18T06:15:52.109Z,99.90
2018-10-18T06:18:19.622Z,99.90
2018-10-18T06:20:47.733Z,99.90
2018-10-18T06:23:15.334Z,99.90
2018-10-18T06:25:42.972Z,99.90
2018-10-18T06:28:10.606Z,99.90
2018-10-18T06:30:38.212Z,99.90
2018-10-18T06:33:05.845Z,99.90
2018-10-18T06:35:33.449Z,99.90
2018-10-18T06:38:00.977Z,99.90
2018-10-18T06:40:28.573Z,99.90
2018-10-18T06:42:56.191Z,99.90
2018-10-18T06:45:23.696Z,99.90
2018-10-18T06:47:51.445Z,99.90
2018-10-18T06:50:19.940Z,99.90
2018-10-18T06:52:47.524Z,99.90
2018-10-18T06:55:15.237Z,99.90
2018-10-18T06:57:43.328Z,99.90
2018-10-18T07:00:14.259Z,99.90
2018-10-18T07:02:42.088Z,99.90
2018-10-18T07:05:10.978Z,99.90
2018-10-18T07:07:38.571Z,99.90
2018-10-18T07:10:06.268Z,99.90
2018-10-18T07:12:34.025Z,99.90
2018-10-18T07:15:01.543Z,99.90
2018-10-18T07:17:29.159Z,99.90
2018-10-18T07:19:56.677Z,99.90
2018-10-18T07:22:28.766Z,99.90
2018-10-18T07:24:56.301Z,99.90
2018-10-18T07:27:23.860Z,99.90
2018-10-18T07:29:51.389Z,99.90
2018-10-18T07:32:18.980Z,99.90
2018-10-18T07:34:46.537Z,99.90
2018-10-18T07:37:14.245Z,99.90
2018-10-18T07:39:41.810Z,99.90
2018-10-18T07:42:09.402Z,99.90
2018-10-18T07:44:36.944Z,99.90
2018-10-18T07:47:05.115Z,99.90
2018-10-18T07:49:32.674Z,99.90
2018-10-18T07:52:01.725Z,99.90
2018-10-18T07:54:29.301Z,99.90
2018-10-18T07:56:56.916Z,99.90
2018-10-18T07:59:24.658Z,99.90
2018-10-18T08:01:52.501Z,99.90
2018-10-18T08:04:20.033Z,99.90
2018-10-18T08:06:47.605Z,99.90
2018-10-18T08:09:15.149Z,99.90
2018-10-18T08:11:42.734Z,99.90
2018-10-18T08:14:10.966Z,99.90
2018-10-18T08:16:38.581Z,99.90
2018-10-18T08:19:06.255Z,99.90
2018-10-18T08:21:33.870Z,99.90
2018-10-18T08:24:01.389Z,99.90
2018-10-18T08:26:29.427Z,99.90
2018-10-18T08:28:56.717Z,99.90
2018-10-18T08:31:24.368Z,99.90
2018-10-18T08:33:51.821Z,99.90
2018-10-18T08:36:19.389Z,99.90
2018-10-18T08:38:47.101Z,99.90
2018-10-18T08:41:14.921Z,99.90
2018-10-18T08:43:42.487Z,99.90
2018-10-18T08:46:10.427Z,99.90
2018-10-18T08:48:37.994Z,99.90
2018-10-18T08:51:05.635Z,99.90
2018-10-18T08:53:33.985Z,99.90
2018-10-18T08:56:03.718Z,99.90
2018-10-18T08:58:31.270Z,99.90
2018-10-18T09:00:58.958Z,99.90
2018-10-18T09:03:26.541Z,99.90
2018-10-18T09:05:54.158Z,99.90
2018-10-18T09:08:21.771Z,99.90
2018-10-18T09:15:44.309Z,99.90
2018-10-18T09:18:11.871Z,99.90
2018-10-18T09:20:39.449Z,99.90
2018-10-18T09:23:07.261Z,99.90
2018-10-18T09:25:34.846Z,99.90
2018-10-18T09:28:02.778Z,99.90
2018-10-18T09:30:30.864Z,99.90
2018-10-18T09:32:57.977Z,99.90
2018-10-18T09:35:25.684Z,99.90
2018-10-18T09:37:53.231Z,99.90
2018-10-18T09:42:49.466Z,99.90
2018-10-18T09:45:17.148Z,99.90
2018-10-18T09:47:44.693Z,99.90
2018-10-18T09:50:12.547Z,99.90
2018-10-18T09:52:40.085Z,99.90
2018-10-18T09:55:09.379Z,99.90
2018-10-18T09:57:37.701Z,99.90
2018-10-18T10:00:05.801Z,99.90
2018-10-18T10:02:40.794Z,99.90
2018-10-18T10:05:09.058Z,99.90
2018-10-18T10:07:36.826Z,99.90
2018-10-18T10:10:04.497Z,99.90
2018-10-18T10:12:32.070Z,99.90
2018-10-18T10:14:59.594Z,99.90
2018-10-18T10:17:27.218Z,99.90
2018-10-18T10:19:54.758Z,99.90
2018-10-18T10:22:22.313Z,99.90
2018-10-18T10:24:49.897Z,99.90
2018-10-18T10:27:17.489Z,99.90
2018-10-18T10:29:45.029Z,99.90
2018-10-18T10:32:12.633Z,99.90
2018-10-18T10:34:40.419Z,99.90
2018-10-18T10:37:08.104Z,99.90
2018-10-18T10:39:35.599Z,99.90
2018-10-18T10:42:03.301Z,99.90
2018-10-18T10:44:30.857Z,99.90
2018-10-18T10:46:58.457Z,99.90
2018-10-18T10:49:26.016Z,99.90
2018-10-18T10:51:53.900Z,99.90
2018-10-18T10:54:22.910Z,99.90
2018-10-18T10:56:50.657Z,99.90
2018-10-18T10:59:19.377Z,99.90
2018-10-18T11:01:47.012Z,99.90
2018-10-18T11:04:14.617Z,99.90
2018-10-18T11:06:42.460Z,99.90
2018-10-18T11:09:10.805Z,99.90
2018-10-18T11:11:38.296Z,99.90
2018-10-18T11:14:05.925Z,99.90
2018-10-18T11:16:37.452Z,99.90
2018-10-18T11:19:05.090Z,99.90
2018-10-18T11:21:32.885Z,99.90
2018-10-18T11:24:00.528Z,99.90
2018-10-18T11:26:28.173Z,99.90
2018-10-18T11:28:55.892Z,99.90
2018-10-18T11:31:23.506Z,99.90
2018-10-18T11:33:51.085Z,99.90
2018-10-18T11:36:18.725Z,99.90
2018-10-18T11:38:46.577Z,99.90
2018-10-18T11:41:14.172Z,99.90
2018-10-18T11:43:41.757Z,99.90
2018-10-18T11:46:09.334Z,99.90
2018-10-18T11:48:36.929Z,99.90
2018-10-18T11:51:04.893Z,99.90
2018-10-18T11:53:33.200Z,99.90
2018-10-18T11:56:00.854Z,99.90
2018-10-18T11:58:28.376Z,99.90
2018-10-18T12:00:56.081Z,99.90
2018-10-18T12:03:23.649Z,99.90
2018-10-18T12:05:51.184Z,99.90
2018-10-18T12:08:18.889Z,99.90
2018-10-18T12:11:01.053Z,99.90
2018-10-18T12:13:28.597Z,99.90
2018-10-18T12:15:56.272Z,99.90
2018-10-18T12:18:23.921Z,99.90
2018-10-18T12:20:51.445Z,99.90
2018-10-18T12:23:19.382Z,99.90
2018-10-18T12:25:46.882Z,99.90
2018-10-18T12:28:14.453Z,99.90
2018-10-18T12:30:42.014Z,99.90
2018-10-18T12:33:09.566Z,99.90
2018-10-18T12:35:37.136Z,99.90
2018-10-18T12:38:04.938Z,99.90
2018-10-18T12:40:32.975Z,99.90
2018-10-18T12:43:00.425Z,99.90
2018-10-18T12:45:28.211Z,99.90
2018-10-18T12:47:55.925Z,99.90
2018-10-18T12:50:23.500Z,99.90
2018-10-18T12:52:51.737Z,99.90
2018-10-18T12:55:19.361Z,99.90
2018-10-18T12:57:47.167Z,99.90
2018-10-18T13:00:14.892Z,99.90
2018-10-18T13:02:42.408Z,99.90
2018-10-18T13:05:10.686Z,99.90
2018-10-18T13:07:38.358Z,99.90
2018-10-18T13:10:07.453Z,99.90
2018-10-18T13:12:35.127Z,99.90
2018-10-18T13:15:02.836Z,99.90
2018-10-18T13:17:30.577Z,99.90
2018-10-18T13:19:58.369Z,99.90
2018-10-18T13:22:25.985Z,99.90
2018-10-18T13:24:53.700Z,99.10
2018-10-18T13:27:21.385Z,99.40
2018-10-18T13:29:49.018Z,99.40
2018-10-18T13:32:16.744Z,99.90
2018-10-18T13:34:44.292Z,99.90
2018-10-18T13:37:11.842Z,99.90
2018-10-18T13:39:40.301Z,99.90
2018-10-18T13:42:07.997Z,99.90
2018-10-18T13:44:35.629Z,99.90
2018-10-18T13:47:03.414Z,99.90
2018-10-18T13:49:31.437Z,99.90
2018-10-18T13:51:59.186Z,99.90
2018-10-18T13:54:27.268Z,99.90
2018-10-18T13:56:55.358Z,99.90
2018-10-18T13:59:34.328Z,99.90
2018-10-18T14:02:02.062Z,99.90
2018-10-18T14:04:29.685Z,99.90
2018-10-18T14:06:57.277Z,99.90
2018-10-18T14:09:25.786Z,99.90
2018-10-18T14:11:53.361Z,99.90
2018-10-18T14:14:20.890Z,99.90
2018-10-18T14:16:48.454Z,99.90
2018-10-18T14:19:16.004Z,99.90
2018-10-18T14:21:43.850Z,99.90
2018-10-18T14:24:11.404Z,99.90
2018-10-18T14:26:40.910Z,99.60
2018-10-18T14:29:08.481Z,98.90
2018-10-18T14:31:36.086Z,99.10
2018-10-18T14:34:04.021Z,99.00
2018-10-18T14:36:31.908Z,98.40
2018-10-18T14:38:59.671Z,98.10
2018-10-18T14:41:27.214Z,97.80
2018-10-18T14:43:55.031Z,98.20
2018-10-18T14:46:29.533Z,97.30
2018-10-18T14:48:59.093Z,95.50
2018-10-18T14:51:32.255Z,95.10
2018-10-18T14:54:01.354Z,94.30
2018-10-18T14:56:30.777Z,93.70
2018-10-18T14:59:00.542Z,93.40
2018-10-18T15:01:30.099Z,91.10
2018-10-18T15:03:59.492Z,88.30
2018-10-18T15:06:28.959Z,82.30
2018-10-18T15:08:57.748Z,81.00
2018-10-18T15:11:26.521Z,83.30
2018-10-18T15:13:55.945Z,87.70
2018-10-18T15:16:25.380Z,89.40
2018-10-18T15:18:54.198Z,86.40
2018-10-18T15:21:23.585Z,82.40
2018-10-18T15:23:53.479Z,76.80
2018-10-18T15:26:22.882Z,73.70
2018-10-18T15:28:52.579Z,73.90
2018-10-18T15:31:24.939Z,71.90
2018-10-18T15:33:53.390Z,72.20
2018-10-18T15:36:22.223Z,71.80
2018-10-18T15:38:51.918Z,71.00
2018-10-18T15:41:20.995Z,70.10
2018-10-18T15:43:49.959Z,69.70
2018-10-18T15:46:19.597Z,70.10
2018-10-18T15:48:51.380Z,69.90
2018-10-18T15:51:20.765Z,70.20
2018-10-18T15:53:49.634Z,71.90
2018-10-18T15:56:19.340Z,74.60
2018-10-18T15:58:48.886Z,78.10
2018-10-18T16:01:19.053Z,81.60
2018-10-18T16:03:48.714Z,85.80
2018-10-18T16:06:18.852Z,90.10
2018-10-18T16:08:47.691Z,92.50
2018-10-18T16:11:17.314Z,93.40
2018-10-18T16:13:49.806Z,94.60
2018-10-18T16:16:18.998Z,95.40
2018-10-18T16:18:48.153Z,96.90
2018-10-18T16:21:17.304Z,97.80
2018-10-18T16:23:46.283Z,98.60
2018-10-18T16:26:15.434Z,99.00
2018-10-18T16:28:44.587Z,99.80
2018-10-18T16:31:13.544Z,99.90
2018-10-18T16:33:43.290Z,99.90
2018-10-18T16:36:12.308Z,99.90
2018-10-18T16:38:41.022Z,99.90
2018-10-18T16:41:10.093Z,99.90
2018-10-18T16:43:38.746Z,99.90
2018-10-18T16:46:07.548Z,99.90
2018-10-18T16:48:39.841Z,99.90
2018-10-18T16:51:08.592Z,99.90
2018-10-18T16:53:38.009Z,99.90
2018-10-18T16:56:07.211Z,99.90
2018-10-18T16:58:36.592Z,99.90
2018-10-18T17:01:06.058Z,99.90
2018-10-18T17:03:35.104Z,99.90
2018-10-18T17:06:04.840Z,99.90
2018-10-18T17:08:34.228Z,99.90
2018-10-18T17:11:02.502Z,99.90
2018-10-18T17:14:34.271Z,99.90
2018-10-18T17:17:07.462Z,99.90
2018-10-18T17:19:36.184Z,99.90
2018-10-18T17:22:05.227Z,99.90
2018-10-18T17:24:34.505Z,99.90
2018-10-18T17:27:04.113Z,99.90
2018-10-18T17:29:33.523Z,99.90
2018-10-18T17:32:02.972Z,99.90
2018-10-18T17:34:33.580Z,99.90
2018-10-18T17:37:02.321Z,99.90
2018-10-18T17:39:31.964Z,99.90
2018-10-18T17:42:02.808Z,99.90
2018-10-18T17:44:31.958Z,99.90
2018-10-18T17:47:01.065Z,99.90
2018-10-18T17:49:29.816Z,99.90
2018-10-18T17:51:59.292Z,99.90
2018-10-18T17:54:28.569Z,99.90
2018-10-18T17:56:58.814Z,99.90
2018-10-18T17:59:28.117Z,99.90
2018-10-18T18:01:57.095Z,99.90
2018-10-18T18:04:25.947Z,99.90
2018-10-18T18:06:54.782Z,99.90
2018-10-18T18:09:24.212Z,99.90
2018-10-18T18:11:53.657Z,99.90
2018-10-18T18:14:23.031Z,99.90
2018-10-18T18:16:50.595Z,99.90
2018-10-18T18:19:18.229Z,99.90
2018-10-18T18:21:45.782Z,99.90
2018-10-18T18:24:13.501Z,99.90
2018-10-18T18:26:45.346Z,99.90
2018-10-18T18:29:08.641Z,99.90
2018-10-18T18:31:36.234Z,99.90
2018-10-18T18:34:03.851Z,99.90
2018-10-18T18:36:32.126Z,99.90
2018-10-18T18:39:00.875Z,99.90
2018-10-18T18:41:29.650Z,99.90
2018-10-18T18:43:57.357Z,99.90
2018-10-18T18:46:26.565Z,99.90
2018-10-18T18:48:54.122Z,99.90
2018-10-18T18:51:21.705Z,99.90
2018-10-18T18:53:49.294Z,99.90
2018-10-18T18:56:16.897Z,99.90
2018-10-18T18:58:44.446Z,99.90
2018-10-18T19:01:12.084Z,99.90
2018-10-18T19:03:39.744Z,99.90
2018-10-18T19:06:07.321Z,99.90
2018-10-18T19:08:34.853Z,99.90
2018-10-18T19:11:03.278Z,99.90
2018-10-18T19:13:30.897Z,99.90
2018-10-18T19:15:58.413Z,99.90
2018-10-18T19:18:25.957Z,99.90
2018-10-18T19:20:53.605Z,99.90
2018-10-18T19:23:21.224Z,99.90
2018-10-18T19:25:48.710Z,99.90
2018-10-18T19:28:16.393Z,99.90
2018-10-18T19:30:43.958Z,99.90
2018-10-18T19:33:11.536Z,99.90
2018-10-18T19:35:40.038Z,99.90
2018-10-18T19:38:07.629Z,99.90
2018-10-18T19:40:35.169Z,99.90
2018-10-18T19:43:02.738Z,99.90
2018-10-18T19:45:30.359Z,99.90
2018-10-18T19:47:57.869Z,99.90
2018-10-18T19:50:25.604Z,99.90
2018-10-18T19:52:53.317Z,99.90
2018-10-18T19:55:20.885Z,99.90
2018-10-18T19:57:48.952Z,99.90
2018-10-18T20:00:16.672Z,99.90
2018-10-18T20:02:44.262Z,99.90
2018-10-18T20:05:12.033Z,99.90
2018-10-18T20:07:39.682Z,99.90
2018-10-18T20:10:07.638Z,99.90
2018-10-18T20:12:35.346Z,99.90
2018-10-18T20:15:03.201Z,99.90
2018-10-18T20:17:30.745Z,99.90
2018-10-18T20:19:58.677Z,99.90
2018-10-18T20:22:26.259Z,99.90
2018-10-18T20:24:53.907Z,99.90
2018-10-18T20:27:21.372Z,99.90
2018-10-18T20:29:48.917Z,99.90
2018-10-18T20:32:16.623Z,99.90
2018-10-18T20:34:44.193Z,99.90
2018-10-18T20:37:11.991Z,99.90
2018-10-18T20:39:39.612Z,99.90
2018-10-18T20:42:07.659Z,99.90
2018-10-18T20:44:35.204Z,99.90
2018-10-18T20:47:02.825Z,99.90
2018-10-18T20:49:30.361Z,99.90
2018-10-18T20:51:57.945Z,99.90
2018-10-18T20:54:25.963Z,99.90
2018-10-18T20:56:53.548Z,99.90
2018-10-18T20:59:21.098Z,99.90
2018-10-18T21:01:48.722Z,99.90
2018-10-18T21:04:16.286Z,99.90
2018-10-18T21:06:44.055Z,99.90
2018-10-18T21:09:11.472Z,99.90
2018-10-18T21:11:39.053Z,99.90
2018-10-18T21:14:07.226Z,99.90
2018-10-18T21:16:35.083Z,99.90
2018-10-18T21:19:03.165Z,99.90
2018-10-18T21:21:30.918Z,99.90
2018-10-18T21:23:58.573Z,99.90
2018-10-18T21:26:26.125Z,99.90
2018-10-18T21:28:53.928Z,99.90
2018-10-18T21:31:21.982Z,99.90
2018-10-18T21:33:49.574Z,99.90
2018-10-18T21:36:17.271Z,99.90
2018-10-18T21:38:44.871Z,99.90
2018-10-18T21:41:12.534Z,99.90
2018-10-18T21:43:40.084Z,99.90
2018-10-18T21:46:07.881Z,99.90
2018-10-18T21:48:36.166Z,99.90
2018-10-18T21:51:03.768Z,99.90
2018-10-18T21:53:31.361Z,99.90
2018-10-18T21:55:58.988Z,99.90
2018-10-18T21:58:26.611Z,99.90
2018-10-18T22:00:54.341Z,99.90
2018-10-18T22:03:22.086Z,99.90
2018-10-18T22:05:49.676Z,99.90
2018-10-18T22:08:17.288Z,99.90
2018-10-18T22:10:44.853Z,99.90
2018-10-18T22:13:12.454Z,99.90
2018-10-18T22:15:40.049Z,99.90
2018-10-18T22:18:07.670Z,99.90
2018-10-18T22:20:35.748Z,99.90
2018-10-18T22:23:03.471Z,99.90
2018-10-18T22:25:31.246Z,99.90
2018-10-18T22:27:58.877Z,99.90
2018-10-18T22:30:26.468Z,99.90
2018-10-18T22:32:54.230Z,99.90
2018-10-18T22:35:22.279Z,99.90
2018-10-18T22:37:49.926Z,99.90
2018-10-18T22:40:18.071Z,99.90
2018-10-18T22:42:45.641Z,99.90
2018-10-18T22:45:13.323Z,99.90
2018-10-18T22:47:40.845Z,99.90
2018-10-18T22:50:08.493Z,99.90
2018-10-18T22:52:36.090Z,99.90
2018-10-18T22:55:03.993Z,99.90
2018-10-18T22:57:31.574Z,99.90
2018-10-18T22:59:59.283Z,99.90
2018-10-18T23:02:26.865Z,99.90
2018-10-18T23:04:54.511Z,99.90
2018-10-18T23:07:22.053Z,99.90
2018-10-18T23:09:49.730Z,99.90
2018-10-18T23:12:17.549Z,99.90
2018-10-18T23:14:45.141Z,99.90
2018-10-18T23:17:12.779Z,99.90
2018-10-18T23:19:40.353Z,99.90
2018-10-18T23:22:08.372Z,99.90
2018-10-18T23:24:37.617Z,99.90
2018-10-18T23:27:06.228Z,99.90
2018-10-18T23:29:33.817Z,99.90
2018-10-18T23:32:01.397Z,99.90
2018-10-18T23:34:29.086Z,99.90
2018-10-18T23:36:57.578Z,99.90
2018-10-18T23:39:25.524Z,99.90
2018-10-18T23:41:53.099Z,99.90
2018-10-18T23:44:20.810Z,99.90
2018-10-18T23:46:48.761Z,99.90
2018-10-18T23:49:16.485Z,99.90
2018-10-18T23:51:44.065Z,99.90
2018-10-18T23:54:11.675Z,99.90
2018-10-18T23:56:39.462Z,99.90
2018-10-18T23:59:07.119Z,99.90
